Time;durP1;ratioP1;P1;durP2;ratioP2;P2;SDS_P1;SDS_P2;PMS_P1;PMS_P2;Temp;Humidity;BMP_temperature;BMP_pressure;BME280_temperature;BME280_humidity;BME280_pressure;Samples;Min_cycle;Max_cycle;Signal;HPM_P1;HPM_P2
2023/09/11 00:01:15;;;;;;;8.73;7.87;;;;;;;17.98;85.56;100823.97;5031978;28;20580;-77
2023/09/11 00:03:41;;;;;;;8.97;8.03;;;;;;;17.97;85.13;100832.19;5031712;28;20254;-78
2023/09/11 00:06:08;;;;;;;8.70;6.93;;;;;;;17.93;85.33;100826.22;5032616;28;20304;-78
2023/09/11 00:08:35;;;;;;;10.43;9.30;;;;;;;17.90;85.66;100815.75;5048374;28;20214;-78
2023/09/11 00:11:03;;;;;;;11.73;9.30;;;;;;;17.86;85.88;100813.47;5051783;28;20960;-79
2023/09/11 00:13:30;;;;;;;11.57;9.33;;;;;;;17.81;86.62;100813.88;5051681;28;20232;-78
2023/09/11 00:15:56;;;;;;;10.10;8.93;;;;;;;17.78;87.06;100808.75;5052381;28;20215;-78
2023/09/11 00:18:23;;;;;;;9.27;8.37;;;;;;;17.76;87.33;100802.66;5050839;28;20825;-78
2023/09/11 00:20:50;;;;;;;8.83;7.97;;;;;;;17.74;87.42;100801.09;5051664;28;20221;-78
2023/09/11 00:23:17;;;;;;;9.50;8.57;;;;;;;17.71;87.58;100802.25;5052051;28;20244;-78
2023/09/11 00:25:43;;;;;;;9.30;8.47;;;;;;;17.65;87.85;100789.34;5052391;28;20213;-77
2023/09/11 00:28:11;;;;;;;9.23;8.33;;;;;;;17.63;88.29;100793.97;5052123;28;20202;-78
2023/09/11 00:30:37;;;;;;;9.47;8.57;;;;;;;17.60;88.68;100789.72;5052063;28;20206;-78
2023/09/11 00:33:05;;;;;;;9.20;8.30;;;;;;;17.58;88.53;100789.00;5051532;28;20229;-80
2023/09/11 00:35:31;;;;;;;8.67;7.90;;;;;;;17.57;88.90;100781.03;5051844;28;20205;-78
2023/09/11 00:37:57;;;;;;;8.97;8.17;;;;;;;17.55;88.75;100786.59;5051880;28;20211;-79
2023/09/11 00:40:24;;;;;;;9.40;8.40;;;;;;;17.53;88.47;100780.50;5051907;28;20247;-79
2023/09/11 00:42:51;;;;;;;10.27;9.27;;;;;;;17.51;88.57;100781.63;5051702;28;20230;-77
2023/09/11 00:45:19;;;;;;;9.17;8.03;;;;;;;17.50;88.66;100785.31;5051806;28;20218;-78
2023/09/11 00:47:47;;;;;;;7.63;7.00;;;;;;;17.44;87.05;100780.47;5052226;28;20212;-79
2023/09/11 00:50:16;;;;;;;7.97;6.33;;;;;;;17.34;85.03;100781.31;5052045;28;20211;-78
2023/09/11 00:52:43;;;;;;;8.17;7.37;;;;;;;17.24;84.03;100779.53;5052096;28;20227;-78
2023/09/11 00:55:10;;;;;;;8.53;7.73;;;;;;;17.16;84.07;100776.69;5051715;28;20211;-78
2023/09/11 00:57:37;;;;;;;8.87;7.07;;;;;;;17.09;85.06;100778.22;5051530;28;20208;-79
2023/09/11 01:00:06;;;;;;;9.10;8.20;;;;;;;17.06;86.43;100771.28;5051790;28;20229;-78
2023/09/11 01:02:34;;;;;;;9.87;7.83;;;;;;;17.07;87.21;100782.88;5051752;28;20272;-78
2023/09/11 01:05:01;;;;;;;10.43;7.43;;;;;;;17.06;87.82;100776.66;5051584;28;20211;-79
2023/09/11 01:07:27;;;;;;;11.30;9.07;;;;;;;17.08;88.34;100774.69;5051530;28;20665;-79
2023/09/11 01:09:54;;;;;;;10.87;8.80;;;;;;;17.11;89.44;100766.34;5051868;28;20209;-79
2023/09/11 01:12:20;;;;;;;10.57;8.87;;;;;;;17.11;89.89;100762.78;5051319;28;20216;-80
2023/09/11 01:14:47;;;;;;;9.87;9.00;;;;;;;17.10;90.54;100755.72;5052189;28;20212;-78
2023/09/11 01:17:20;;;;;;;9.10;8.20;;;;;;;17.10;90.63;100744.94;5055311;28;20205;-78
2023/09/11 01:20:09;;;;;;;10.77;9.23;;;;;;;17.09;90.76;100748.63;5054749;28;20235;-78
2023/09/11 01:23:08;;;;;;;12.73;9.30;;;;;;;17.07;90.46;100745.22;5055401;28;20696;-79
2023/09/11 01:25:52;;;;;;;9.83;8.70;;;;;;;17.04;90.64;100746.34;5035489;28;20253;-79
2023/09/11 01:28:51;;;;;;;9.57;8.13;;;;;;;17.02;90.91;100743.78;5035031;28;20535;-78
2023/09/11 01:31:20;;;;;;;8.67;7.87;;;;;;;17.00;90.94;100753.00;5052219;28;20216;-79
2023/09/11 01:33:53;;;;;;;8.87;8.03;;;;;;;16.98;91.21;100752.28;5055135;28;20268;-79
2023/09/11 01:36:19;;;;;;;10.57;8.50;;;;;;;16.98;91.29;100757.66;5054863;28;20191;-78
2023/09/11 01:38:46;;;;;;;10.17;8.70;;;;;;;16.98;91.42;100752.28;5054529;28;20233;-78
2023/09/11 01:41:16;;;;;;;9.70;8.80;;;;;;;16.98;91.60;100752.28;5055123;28;20689;-78
2023/09/11 01:43:45;;;;;;;9.43;8.53;;;;;;;16.98;91.39;100753.13;5054987;28;20238;-78
2023/09/11 01:46:13;;;;;;;10.60;8.73;;;;;;;16.95;90.92;100752.53;5054927;28;20207;-78
2023/09/11 01:48:42;;;;;;;9.63;8.63;;;;;;;16.91;90.85;100751.94;5054349;28;20580;-79
2023/09/11 01:51:09;;;;;;;9.60;8.17;;;;;;;16.85;90.66;100746.25;5054591;28;20235;-79
2023/09/11 01:53:36;;;;;;;11.33;8.77;;;;;;;16.80;90.52;100744.00;5054599;28;20239;-77
2023/09/11 01:56:03;;;;;;;9.53;8.73;;;;;;;16.74;90.67;100739.13;5054594;28;20213;-78
2023/09/11 01:58:29;;;;;;;10.13;8.40;;;;;;;16.70;91.06;100744.91;5054349;28;20208;-78
2023/09/11 02:00:56;;;;;;;12.43;9.17;;;;;;;16.66;91.56;100739.78;5054053;28;20205;-77
2023/09/11 02:03:22;;;;;;;9.37;8.47;;;;;;;16.62;91.90;100746.41;5054689;28;20226;-79
2023/09/11 02:05:50;;;;;;;10.20;9.27;;;;;;;16.58;92.73;100747.66;5054568;28;20212;-77
2023/09/11 02:08:16;;;;;;;9.70;8.70;;;;;;;16.57;93.17;100745.97;5054373;28;20210;-78
2023/09/11 02:10:43;;;;;;;9.87;8.87;;;;;;;16.56;93.70;100749.63;5053976;28;20565;-79
2023/09/11 02:13:09;;;;;;;10.13;9.03;;;;;;;16.56;94.10;100741.56;5054167;28;20297;-78
2023/09/11 02:15:36;;;;;;;11.30;9.03;;;;;;;16.56;94.33;100736.19;5054851;28;20550;-80
2023/09/11 02:18:02;;;;;;;10.53;8.83;;;;;;;16.56;94.22;100729.97;5054943;28;20215;-78
2023/09/11 02:20:28;;;;;;;9.57;8.57;;;;;;;16.55;94.18;100739.84;5054327;28;20239;-78
2023/09/11 02:22:56;;;;;;;10.63;8.50;;;;;;;16.53;93.46;100733.75;5054884;28;20229;-78
2023/09/11 02:25:23;;;;;;;9.47;8.47;;;;;;;16.51;93.15;100732.19;5054467;28;20219;-78
2023/09/11 02:27:49;;;;;;;10.00;8.63;;;;;;;16.47;92.94;100725.41;5054430;28;20217;-79
2023/09/11 02:30:16;;;;;;;9.33;8.30;;;;;;;16.43;93.45;100727.50;5054900;28;20210;-78
2023/09/11 02:32:42;;;;;;;10.20;9.13;;;;;;;16.42;93.65;100727.63;5053801;28;20596;-78
2023/09/11 02:35:09;;;;;;;11.67;10.47;;;;;;;16.41;94.77;100724.09;5053893;28;20812;-78
2023/09/11 02:37:35;;;;;;;13.20;11.07;;;;;;;16.42;96.42;100725.78;5053664;28;20213;-79
2023/09/11 02:40:04;;;;;;;11.57;10.47;;;;;;;16.43;97.26;100724.81;5053840;28;20239;-78
2023/09/11 02:42:31;;;;;;;13.93;10.97;;;;;;;16.46;97.24;100719.16;5053864;28;20233;-78
2023/09/11 02:44:57;;;;;;;13.50;11.17;;;;;;;16.48;97.48;100721.72;5053714;28;20208;-78
2023/09/11 02:47:22;;;;;;;14.20;11.03;;;;;;;16.45;98.73;100712.09;5054435;28;20206;-78
2023/09/11 02:49:49;;;;;;;12.93;10.63;;;;;;;16.45;99.77;100712.09;5055248;28;20795;-79
2023/09/11 02:52:15;;;;;;;12.83;11.63;;;;;;;16.45;100.00;100705.84;5054035;28;20216;-78
2023/09/11 02:54:42;;;;;;;12.87;10.90;;;;;;;16.43;100.00;100708.66;5054497;28;20298;-80
2023/09/11 02:57:10;;;;;;;13.63;10.97;;;;;;;16.39;100.00;100709.91;5054220;28;20218;-79
2023/09/11 02:59:37;;;;;;;13.50;10.83;;;;;;;16.38;100.00;100710.91;5054296;28;20234;-78
2023/09/11 03:02:04;;;;;;;17.00;11.80;;;;;;;16.36;100.00;100704.81;5053801;28;20205;-77
2023/09/11 03:04:31;;;;;;;13.73;11.63;;;;;;;16.36;100.00;100701.25;5052833;28;20243;-80
2023/09/11 03:06:57;;;;;;;13.47;12.00;;;;;;;16.37;100.00;100709.19;5053900;28;20208;-80
2023/09/11 03:09:24;;;;;;;13.20;11.70;;;;;;;16.37;100.00;100703.81;5053331;28;20219;-79
2023/09/11 03:11:50;;;;;;;13.33;12.03;;;;;;;16.37;100.00;100711.03;5053468;28;20231;-78
2023/09/11 03:14:18;;;;;;;13.23;11.93;;;;;;;16.37;100.00;100703.81;5053048;28;20693;-80
2023/09/11 03:16:44;;;;;;;16.00;11.77;;;;;;;16.38;100.00;100705.53;5053068;28;20582;-79
2023/09/11 03:19:11;;;;;;;13.40;12.10;;;;;;;16.40;100.00;100702.72;5053022;28;20701;-79
2023/09/11 03:21:37;;;;;;;14.83;13.10;;;;;;;16.40;100.00;100690.13;5053330;28;20460;-79
2023/09/11 03:24:04;;;;;;;16.97;13.20;;;;;;;16.40;100.00;100700.88;5052593;28;20261;-80
2023/09/11 03:26:31;;;;;;;15.60;12.10;;;;;;;16.40;100.00;100702.72;5052919;28;20214;-80
2023/09/11 03:28:57;;;;;;;14.00;11.77;;;;;;;16.41;100.00;100702.56;5052802;28;20209;-81
2023/09/11 03:31:25;;;;;;;13.50;12.10;;;;;;;16.38;100.00;100697.47;5052596;28;20219;-81
2023/09/11 03:33:52;;;;;;;13.10;11.80;;;;;;;16.38;100.00;100697.47;5052841;28;20623;-80
2023/09/11 03:36:19;;;;;;;14.10;12.33;;;;;;;16.35;100.00;100697.72;5052833;28;20671;-80
2023/09/11 03:38:45;;;;;;;15.23;12.33;;;;;;;16.31;100.00;100696.28;5051965;28;20212;-79
2023/09/11 03:41:12;;;;;;;13.50;12.07;;;;;;;16.29;100.00;100695.59;5052727;28;20228;-79
2023/09/11 03:43:38;;;;;;;14.03;12.07;;;;;;;16.25;100.00;100688.75;5053218;28;20236;-80
2023/09/11 03:46:05;;;;;;;14.90;12.47;;;;;;;16.25;100.00;100695.00;5052356;28;20202;-79
2023/09/11 03:48:33;;;;;;;13.00;11.70;;;;;;;16.24;100.00;100693.28;5052735;28;21021;-80
2023/09/11 03:50:59;;;;;;;14.77;12.43;;;;;;;16.24;100.00;100687.06;5052873;28;20552;-79
2023/09/11 03:53:25;;;;;;;14.00;12.50;;;;;;;16.25;100.00;100683.38;5052221;28;20225;-79
2023/09/11 03:55:52;;;;;;;14.83;13.23;;;;;;;16.26;100.00;100677.88;5052252;28;20213;-80
2023/09/11 03:58:18;;;;;;;13.47;12.23;;;;;;;16.27;100.00;100678.75;5052533;28;20206;-79
2023/09/11 04:00:45;;;;;;;15.00;12.53;;;;;;;16.25;100.00;100673.50;5052258;28;20316;-79
2023/09/11 04:03:12;;;;;;;13.37;12.00;;;;;;;16.24;100.00;100673.63;5051723;28;20232;-79
2023/09/11 04:05:40;;;;;;;13.63;12.23;;;;;;;16.24;100.00;100670.94;5052686;28;20231;-79
2023/09/11 04:08:06;;;;;;;14.40;13.00;;;;;;;16.22;100.00;100672.91;5051973;28;20579;-81
2023/09/11 04:10:33;;;;;;;14.03;12.70;;;;;;;16.22;100.00;100667.53;5053244;28;20581;-80
2023/09/11 04:12:59;;;;;;;14.03;12.60;;;;;;;16.19;100.00;100668.63;5053365;28;20574;-80
2023/09/11 04:15:26;;;;;;;13.40;12.00;;;;;;;16.18;100.00;100660.72;5052517;28;20209;-79
2023/09/11 04:17:54;;;;;;;16.03;12.80;;;;;;;16.17;100.00;100670.59;5052122;28;20212;-79
2023/09/11 04:20:21;;;;;;;13.47;12.13;;;;;;;16.13;100.00;100671.84;5052989;28;20227;-78
2023/09/11 04:22:48;;;;;;;14.33;12.40;;;;;;;16.09;100.00;100666.88;5052368;28;20232;-79
2023/09/11 04:25:15;;;;;;;17.53;13.30;;;;;;;16.08;100.00;100659.81;5053450;28;20201;-79
2023/09/11 04:27:42;;;;;;;18.43;13.03;;;;;;;16.05;100.00;100666.28;5053379;28;20216;-79
2023/09/11 04:30:09;;;;;;;12.83;11.43;;;;;;;16.06;100.00;100669.84;5052252;28;20209;-79
2023/09/11 04:32:35;;;;;;;14.10;12.23;;;;;;;16.03;100.00;100665.56;5052011;28;20582;-79
2023/09/11 04:35:03;;;;;;;17.00;13.13;;;;;;;16.03;100.00;100664.72;5052161;28;20219;-79
2023/09/11 04:37:30;;;;;;;13.83;12.47;;;;;;;16.02;100.00;100665.69;5052929;28;20207;-79
2023/09/11 04:39:58;;;;;;;14.87;12.73;;;;;;;16.01;100.00;100670.22;5052436;28;20767;-80
2023/09/11 04:42:25;;;;;;;14.63;12.83;;;;;;;16.01;100.00;100670.22;5052067;28;20271;-79
2023/09/11 04:44:51;;;;;;;16.67;13.07;;;;;;;16.01;100.00;100672.06;5052211;28;20208;-78
2023/09/11 04:47:18;;;;;;;14.53;13.17;;;;;;;16.01;100.00;100662.16;5051495;28;20213;-79
2023/09/11 04:49:44;;;;;;;14.87;13.43;;;;;;;16.01;100.00;100659.47;5052558;28;20207;-80
2023/09/11 04:52:11;;;;;;;14.83;13.33;;;;;;;16.02;100.00;100663.88;5055327;28;20207;-78
2023/09/11 04:54:37;;;;;;;14.63;13.13;;;;;;;16.01;100.00;100658.63;5052875;28;20225;-80
2023/09/11 04:57:05;;;;;;;15.33;12.47;;;;;;;16.02;100.00;100665.69;5047636;28;20222;-80
2023/09/11 04:59:32;;;;;;;17.33;12.07;;;;;;;15.99;100.00;100666.81;5044477;28;20227;-79
2023/09/11 05:01:58;;;;;;;13.17;11.83;;;;;;;15.97;100.00;100658.88;5054382;28;20248;-78
2023/09/11 05:04:25;;;;;;;13.90;12.50;;;;;;;15.96;100.00;100664.38;5044402;28;20619;-79
2023/09/11 05:06:53;;;;;;;15.37;11.60;;;;;;;15.95;100.00;100660.84;5045300;28;20813;-80
2023/09/11 05:09:19;;;;;;;13.73;11.97;;;;;;;15.94;100.00;100663.69;5037442;28;20215;-79
2023/09/11 05:11:45;;;;;;;16.50;13.00;;;;;;;15.91;100.00;100670.16;5046692;28;20210;-79
2023/09/11 05:14:13;;;;;;;15.57;13.00;;;;;;;15.89;100.00;100673.97;5044970;28;20228;-79
2023/09/11 05:16:40;;;;;;;14.43;12.97;;;;;;;15.86;100.00;100668.84;5049624;28;20211;-79
2023/09/11 05:19:06;;;;;;;15.83;12.67;;;;;;;15.82;100.00;100670.94;5048088;28;20242;-80
2023/09/11 05:21:33;;;;;;;16.30;13.33;;;;;;;15.80;100.00;100670.22;5052211;28;20213;-79
2023/09/11 05:23:59;;;;;;;14.53;13.03;;;;;;;15.80;100.00;100677.41;5051894;28;20225;-78
2023/09/11 05:26:26;;;;;;;13.97;12.47;;;;;;;15.80;100.00;100669.34;5054496;28;20212;-79
2023/09/11 05:28:52;;;;;;;16.57;14.50;;;;;;;15.82;100.00;100667.41;5054029;28;20641;-80
2023/09/11 05:31:20;;;;;;;17.40;14.10;;;;;;;15.86;100.00;100669.69;5053776;28;20650;-80
2023/09/11 05:33:46;;;;;;;16.93;13.97;;;;;;;15.92;100.00;100665.66;5054135;28;20696;-80
2023/09/11 05:36:13;;;;;;;17.37;13.87;;;;;;;15.98;100.00;100671.34;5053869;28;20207;-80
2023/09/11 05:38:39;;;;;;;16.70;13.87;;;;;;;16.06;100.00;100667.16;5049180;28;20195;-79
2023/09/11 05:41:06;;;;;;;16.07;14.37;;;;;;;16.13;100.00;100665.63;5033896;28;20233;-80
2023/09/11 05:43:32;;;;;;;16.07;14.40;;;;;;;16.20;100.00;100664.97;5053201;28;20228;-79
2023/09/11 05:45:59;;;;;;;17.07;14.60;;;;;;;16.27;100.00;100666.16;5054109;28;20589;-79
2023/09/11 05:48:27;;;;;;;15.30;13.80;;;;;;;16.33;100.00;100670.13;5053443;28;20692;-81
2023/09/11 05:50:53;;;;;;;16.87;13.87;;;;;;;16.40;100.00;100668.63;5053505;28;20564;-80
2023/09/11 05:53:20;;;;;;;14.70;13.17;;;;;;;16.46;100.00;100673.47;5053756;28;20852;-79
2023/09/11 05:55:46;;;;;;;20.30;14.57;;;;;;;16.52;100.00;100664.84;5047985;28;20574;-81
2023/09/11 05:58:13;;;;;;;14.60;13.23;;;;;;;16.58;100.00;100667.00;5042535;28;20205;-80
2023/09/11 06:00:39;;;;;;;17.13;14.57;;;;;;;16.64;100.00;100665.66;5052465;28;20239;-79
2023/09/11 06:03:06;;;;;;;15.83;14.00;;;;;;;16.71;100.00;100668.63;5046126;28;20233;-81
2023/09/11 06:05:36;;;;;;;14.83;13.30;;;;;;;16.78;100.00;100672.50;5033880;28;20214;-82
2023/09/11 06:08:03;;;;;;;19.20;15.00;;;;;;;16.84;100.00;100674.63;5042074;28;20194;-81
2023/09/11 06:10:30;;;;;;;17.10;14.50;;;;;;;16.91;100.00;100667.72;5033987;28;20204;-81
2023/09/11 06:12:56;;;;;;;16.40;13.40;;;;;;;17.00;100.00;100674.97;5033949;28;20227;-82
2023/09/11 06:15:24;;;;;;;16.17;14.23;;;;;;;17.07;100.00;100668.03;5043804;28;20220;-80
2023/09/11 06:17:51;;;;;;;15.30;13.70;;;;;;;17.15;100.00;100668.19;5054080;28;20211;-81
2023/09/11 06:20:18;;;;;;;15.83;14.27;;;;;;;17.24;100.00;100667.34;5053265;28;20234;-80
2023/09/11 06:22:46;;;;;;;21.53;14.63;;;;;;;17.35;100.00;100669.09;5053022;28;20271;-79
2023/09/11 06:25:12;;;;;;;17.10;14.63;;;;;;;17.44;100.00;100665.53;5053246;28;20214;-79
2023/09/11 06:27:39;;;;;;;16.07;13.47;;;;;;;17.51;100.00;100669.38;5052798;28;20214;-80
2023/09/11 06:30:07;;;;;;;16.83;14.33;;;;;;;17.61;100.00;100670.22;5052742;28;20207;-80
2023/09/11 06:32:33;;;;;;;17.03;14.53;;;;;;;17.71;100.00;100664.03;5053190;28;20218;-79
2023/09/11 06:35:01;;;;;;;16.03;13.87;;;;;;;17.80;100.00;100664.00;5053014;28;20218;-80
2023/09/11 06:37:28;;;;;;;18.07;14.33;;;;;;;17.90;100.00;100659.47;5053323;28;20208;-80
2023/09/11 06:39:56;;;;;;;16.97;14.67;;;;;;;18.01;100.00;100658.44;5052595;28;20211;-80
2023/09/11 06:42:24;;;;;;;16.67;14.90;;;;;;;18.12;100.00;100655.56;5052721;28;20213;-80
2023/09/11 06:44:51;;;;;;;15.67;14.07;;;;;;;18.25;100.00;100657.97;5053835;28;20688;-81
2023/09/11 06:47:18;;;;;;;16.77;14.40;;;;;;;18.38;100.00;100658.50;5053130;28;20207;-80
2023/09/11 06:49:45;;;;;;;16.37;14.00;;;;;;;18.51;100.00;100641.97;5052883;28;20432;-81
2023/09/11 06:52:11;;;;;;;15.17;13.60;;;;;;;18.66;100.00;100646.75;5042425;28;20214;-79
2023/09/11 06:54:38;;;;;;;14.53;13.00;;;;;;;18.82;100.00;100645.25;5032874;28;20226;-79
2023/09/11 06:57:07;;;;;;;16.13;12.90;;;;;;;18.94;100.00;100649.47;5040827;28;20210;-79
2023/09/11 06:59:33;;;;;;;18.53;12.33;;;;;;;19.06;100.00;100648.25;5053225;28;20216;-80
2023/09/11 07:02:00;;;;;;;14.37;12.90;;;;;;;19.18;100.00;100636.22;5052645;28;20229;-80
2023/09/11 07:04:27;;;;;;;14.30;12.43;;;;;;;19.31;100.00;100644.81;5053033;28;20224;-80
2023/09/11 07:06:53;;;;;;;15.17;11.90;;;;;;;19.46;100.00;100644.28;5052705;28;20209;-81
2023/09/11 07:09:20;;;;;;;13.07;11.87;;;;;;;19.58;100.00;100643.06;5053318;28;20215;-82
2023/09/11 07:11:46;;;;;;;14.77;11.03;;;;;;;19.73;99.17;100645.06;5052741;28;20209;-80
2023/09/11 07:14:19;;;;;;;15.90;11.07;;;;;;;19.87;98.46;100643.69;5051901;28;20223;-79
2023/09/11 07:16:46;;;;;;;13.03;10.90;;;;;;;20.03;97.46;100645.66;5045264;28;20211;-79
2023/09/11 07:19:12;;;;;;;12.50;10.40;;;;;;;20.21;96.83;100642.91;5051838;28;20231;-79
2023/09/11 07:21:40;;;;;;;12.83;10.60;;;;;;;20.38;95.41;100642.00;5052541;28;20258;-79
2023/09/11 07:24:07;;;;;;;12.18;10.63;;;;;;;20.54;94.62;100646.66;5045267;28;20683;-81
2023/09/11 07:26:33;;;;;;;16.88;10.48;;;;;;;20.66;94.07;100634.53;5050136;28;20220;-79
2023/09/11 07:29:02;;;;;;;14.32;10.20;;;;;;;20.82;93.53;100645.41;5052024;28;20216;-80
2023/09/11 07:31:31;;;;;;;12.65;10.23;;;;;;;20.98;92.91;100631.09;5050204;28;20290;-80
2023/09/11 07:33:59;;;;;;;11.18;9.77;;;;;;;21.12;92.05;100634.03;5046252;28;20234;-80
2023/09/11 07:36:27;;;;;;;15.13;12.65;;;;;;;21.29;91.28;100632.25;5036679;28;20202;-80
2023/09/11 07:38:54;;;;;;;13.40;10.93;;;;;;;21.42;90.27;100629.88;5045014;28;20210;-80
2023/09/11 07:41:21;;;;;;;13.05;10.38;;;;;;;21.59;89.46;100632.59;5040946;28;20226;-78
2023/09/11 07:43:49;;;;;;;13.30;11.23;;;;;;;21.69;88.45;100633.25;5048177;28;20235;-80
2023/09/11 07:46:16;;;;;;;12.05;10.55;;;;;;;21.82;87.50;100633.63;5051543;28;20291;-79
2023/09/11 07:48:44;;;;;;;13.35;10.15;;;;;;;21.92;86.21;100631.56;5051914;28;20205;-79
2023/09/11 07:51:11;;;;;;;15.68;11.63;;;;;;;22.00;85.00;100625.34;5038370;28;20208;-80
2023/09/11 07:53:37;;;;;;;11.02;9.73;;;;;;;22.10;84.02;100620.56;5051446;28;20232;-79
2023/09/11 07:56:07;;;;;;;12.55;10.77;;;;;;;22.23;83.13;100633.59;5052112;28;20213;-80
2023/09/11 07:58:33;;;;;;;10.55;9.43;;;;;;;22.33;82.26;100626.97;5044975;28;20593;-82
2023/09/11 08:01:00;;;;;;;12.48;9.65;;;;;;;22.42;80.51;100622.34;5048732;28;20676;-82
2023/09/11 08:03:26;;;;;;;10.38;9.05;;;;;;;22.52;80.04;100618.44;5051231;28;20232;-82
2023/09/11 08:05:54;;;;;;;11.25;8.88;;;;;;;22.65;79.80;100619.72;5059311;28;20213;-81
2023/09/11 08:08:20;;;;;;;10.63;9.35;;;;;;;22.77;79.77;100615.63;5053492;28;20201;-81
2023/09/11 08:10:47;;;;;;;10.77;9.32;;;;;;;22.94;78.86;100616.38;5053271;28;20201;-81
2023/09/11 08:13:13;;;;;;;11.15;8.82;;;;;;;23.10;78.09;100616.31;5052435;28;20224;-81
2023/09/11 08:15:40;;;;;;;13.00;9.23;;;;;;;23.26;77.37;100608.06;5053390;28;20212;-84
2023/09/11 08:18:06;;;;;;;9.63;8.70;;;;;;;23.42;77.17;100613.38;5045529;28;20247;-80
2023/09/11 08:20:33;;;;;;;10.48;9.00;;;;;;;23.60;76.36;100615.81;5054073;28;20212;-83
2023/09/11 08:23:01;;;;;;;14.40;9.63;;;;;;;23.79;75.99;100614.47;5045724;28;20228;-82
2023/09/11 08:25:28;;;;;;;10.70;8.70;;;;;;;23.89;74.88;100618.63;5042277;28;20210;-81
2023/09/11 08:27:55;;;;;;;11.93;8.60;;;;;;;24.03;74.46;100616.94;5046906;28;20295;-81
2023/09/11 08:30:22;;;;;;;10.60;8.10;;;;;;;24.20;73.67;100618.47;5060608;28;20212;-80
2023/09/11 08:32:48;;;;;;;10.60;7.70;;;;;;;24.33;72.68;100614.31;5061400;28;20224;-85
2023/09/11 08:35:15;;;;;;;10.38;7.20;;;;;;;24.48;71.78;100609.72;5060693;28;20212;-83
2023/09/11 08:37:42;;;;;;;10.55;6.68;;;;;;;24.65;71.25;100600.31;5061409;28;20215;-81
2023/09/11 08:40:10;;;;;;;12.02;6.22;;;;;;;24.83;65.38;100602.63;5061597;28;20209;-81
2023/09/11 08:42:37;;;;;;;12.15;6.30;;;;;;;24.97;65.28;100600.94;5060776;28;20601;-80
2023/09/11 08:45:03;;;;;;;16.02;6.47;;;;;;;25.11;65.07;100602.75;5060783;28;20212;-81
2023/09/11 08:47:31;;;;;;;13.35;6.03;;;;;;;25.28;63.91;100601.47;5061391;28;20212;-82
2023/09/11 08:50:03;;;;;;;10.55;6.30;;;;;;;25.42;62.14;100592.41;5061295;28;20215;-85
2023/09/11 08:52:30;;;;;;;12.10;6.13;;;;;;;25.62;61.96;100594.50;5062492;28;20189;-85
2023/09/11 08:55:01;;;;;;;12.85;6.75;;;;;;;25.74;60.78;100590.22;5061616;28;20205;-81
2023/09/11 08:57:32;;;;;;;12.95;5.90;;;;;;;25.90;59.90;100584.47;5061591;28;20589;-81
2023/09/11 09:00:05;;;;;;;12.10;6.15;;;;;;;26.10;60.22;100577.25;5062014;28;20653;-82
2023/09/11 09:02:33;;;;;;;16.15;6.65;;;;;;;26.28;59.23;100579.47;5051012;28;20210;-81
2023/09/11 09:05:03;;;;;;;12.18;5.80;;;;;;;26.48;58.00;100576.88;5040561;28;20206;-81
2023/09/11 09:07:32;;;;;;;9.15;5.93;;;;;;;26.64;56.69;100576.53;5040635;28;20300;-81
2023/09/11 09:09:59;;;;;;;18.00;6.20;;;;;;;26.77;56.26;100575.75;5040809;28;20662;-81
2023/09/11 09:12:26;;;;;;;15.75;6.30;;;;;;;26.88;55.21;100575.16;5058846;28;20714;-81
2023/09/11 09:14:54;;;;;;;9.98;5.15;;;;;;;27.00;54.91;100578.19;5061022;28;20197;-81
2023/09/11 09:17:20;;;;;;;14.55;6.03;;;;;;;27.11;54.42;100569.38;5061142;28;20212;-81
2023/09/11 09:19:47;;;;;;;13.95;5.88;;;;;;;27.24;54.11;100567.50;5060817;28;20600;-81
2023/09/11 09:22:13;;;;;;;10.35;5.50;;;;;;;27.39;53.60;100564.59;5060635;28;20693;-82
2023/09/11 09:24:49;;;;;;;12.27;5.53;;;;;;;27.54;54.43;100562.50;5061452;28;20225;-81
2023/09/11 09:27:15;;;;;;;18.90;6.32;;;;;;;27.74;53.71;100569.91;5061973;28;20185;-81
2023/09/11 09:29:42;;;;;;;13.18;6.18;;;;;;;27.92;53.23;100570.09;5062290;28;20208;-84
2023/09/11 09:32:10;;;;;;;17.60;6.20;;;;;;;28.11;51.85;100569.22;5061931;28;20536;-81
2023/09/11 09:34:38;;;;;;;9.65;5.47;;;;;;;28.22;51.95;100565.03;5061493;28;20595;-81
2023/09/11 09:37:05;;;;;;;9.80;5.30;;;;;;;28.34;50.93;100575.09;5057801;28;20208;-81
2023/09/11 09:39:33;;;;;;;12.70;5.85;;;;;;;28.41;50.00;100568.75;5041815;28;20208;-81
2023/09/11 09:42:01;;;;;;;14.18;5.97;;;;;;;28.47;49.84;100568.75;5057522;28;20221;-81
2023/09/11 09:44:31;;;;;;;13.43;5.50;;;;;;;28.59;50.26;100560.69;5057833;28;20229;-82
2023/09/11 09:47:05;;;;;;;13.10;5.43;;;;;;;28.66;49.80;100553.28;5057764;28;20672;-81
2023/09/11 09:49:42;;;;;;;13.88;5.47;;;;;;;28.71;49.12;100560.84;5058053;28;20193;-81
2023/09/11 09:52:08;;;;;;;14.13;5.30;;;;;;;28.79;49.30;100555.13;5058138;28;20668;-85
2023/09/11 09:54:42;;;;;;;8.85;4.70;;;;;;;28.86;48.04;100553.19;5056960;28;20225;-81
2023/09/11 09:57:10;;;;;;;11.38;5.40;;;;;;;28.88;48.37;100546.44;5057873;28;20247;-81
2023/09/11 09:59:37;;;;;;;10.63;4.93;;;;;;;28.93;48.41;100545.78;5050675;28;20209;-81
2023/09/11 10:02:04;;;;;;;12.75;5.40;;;;;;;29.02;47.89;100537.06;5057142;28;20225;-82
2023/09/11 10:04:32;;;;;;;14.05;5.53;;;;;;;29.09;47.97;100537.06;5047892;28;20233;-81
2023/09/11 10:07:00;;;;;;;11.45;4.95;;;;;;;29.17;47.49;100531.31;5043142;28;20209;-81
2023/09/11 10:09:28;;;;;;;16.38;5.10;;;;;;;29.28;47.47;100533.34;5057613;28;20684;-81
2023/09/11 10:11:54;;;;;;;12.32;5.25;;;;;;;29.39;47.14;100537.28;5046086;28;20209;-81
2023/09/11 10:14:22;;;;;;;11.95;5.18;;;;;;;29.48;47.32;100529.63;5062219;28;20223;-81
2023/09/11 10:16:49;;;;;;;14.05;5.57;;;;;;;29.55;46.74;100524.94;5067598;28;20216;-83
2023/09/11 10:19:16;;;;;;;13.90;5.80;;;;;;;29.64;46.64;100527.16;5049510;28;20209;-81
2023/09/11 10:21:42;;;;;;;11.05;5.50;;;;;;;29.69;47.30;100526.50;5045234;28;20629;-81
2023/09/11 10:24:11;;;;;;;10.00;5.18;;;;;;;29.76;47.86;100524.50;5057463;28;20720;-81
2023/09/11 10:26:44;;;;;;;11.10;5.35;;;;;;;29.80;47.56;100524.91;5056782;28;20742;-81
2023/09/11 10:29:12;;;;;;;9.73;5.80;;;;;;;29.88;46.84;100527.38;5056428;28;20243;-81
2023/09/11 10:31:46;;;;;;;11.85;5.38;;;;;;;29.92;47.44;100528.56;5062605;28;20204;-81
2023/09/11 10:34:13;;;;;;;11.07;5.40;;;;;;;29.98;47.09;100519.47;5049266;28;20230;-81
2023/09/11 10:36:46;;;;;;;9.25;5.65;;;;;;;30.02;46.74;100515.22;5050780;28;20221;-81
2023/09/11 10:39:17;;;;;;;8.65;5.65;;;;;;;30.03;46.60;100509.50;5056569;28;20634;-83
2023/09/11 10:41:44;;;;;;;11.18;5.20;;;;;;;30.05;47.30;100512.03;5056902;28;20213;-81
2023/09/11 10:44:11;;;;;;;10.85;5.40;;;;;;;30.04;47.11;100518.56;5042164;28;20234;-81
2023/09/11 10:46:39;;;;;;;11.52;5.00;;;;;;;30.06;46.96;100513.69;5053326;28;20217;-81
2023/09/11 10:49:15;;;;;;;13.00;5.82;;;;;;;30.08;47.27;100510.72;5057559;28;20205;-82
2023/09/11 10:51:42;;;;;;;9.93;5.68;;;;;;;30.08;47.31;100510.72;5057041;28;20664;-81
2023/09/11 10:54:09;;;;;;;11.23;5.07;;;;;;;30.10;47.11;100503.09;5056483;28;20225;-82
2023/09/11 10:56:37;;;;;;;12.45;5.55;;;;;;;30.13;47.48;100508.94;5057005;28;20209;-81
2023/09/11 10:59:04;;;;;;;8.07;5.32;;;;;;;30.18;46.68;100500.88;5042319;28;20198;-82
2023/09/11 11:01:33;;;;;;;12.40;5.57;;;;;;;30.20;46.59;100498.75;5053494;28;20229;-82
2023/09/11 11:04:02;;;;;;;11.38;5.25;;;;;;;30.24;46.75;100494.47;5051979;28;20229;-81
2023/09/11 11:06:29;;;;;;;7.95;4.50;;;;;;;30.27;46.30;100496.78;5053744;28;20210;-84
2023/09/11 11:08:55;;;;;;;13.75;5.75;;;;;;;30.28;46.04;100503.91;5056240;28;20212;-81
2023/09/11 11:11:27;;;;;;;10.68;5.40;;;;;;;30.30;46.00;100503.69;5059166;28;20228;-81
2023/09/11 11:14:15;;;;;;;10.70;5.25;;;;;;;30.33;46.13;100492.25;5038014;28;20226;-82